sensor_id;sensor_type;location;lat;lon;timestamp;temperature;humidity
13409;DHT22;6775;49.574;11.170;2023-03-16T00:00:47;-0.80;99.90
13409;DHT22;6775;49.574;11.170;2023-03-16T00:03:15;-0.80;99.90
13409;DHT22;6775;49.574;11.170;2023-03-16T00:05:46;-0.80;99.90
13409;DHT22;6775;49.574;11.170;2023-03-16T00:08:14;-0.80;99.90
13409;DHT22;6775;49.574;11.170;2023-03-16T00:10:44;-0.80;99.90
13409;DHT22;6775;49.574;11.170;2023-03-16T00:13:13;-0.70;99.90
13409;DHT22;6775;49.574;11.170;2023-03-16T00:15:47;-0.80;99.90
13409;DHT22;6775;49.574;11.170;2023-03-16T00:18:16;-0.80;99.90
13409;DHT22;6775;49.574;11.170;2023-03-16T00:20:43;-0.80;99.90
13409;DHT22;6775;49.574;11.170;2023-03-16T00:23:11;-0.80;99.90
13409;DHT22;6775;49.574;11.170;2023-03-16T00:25:39;-0.80;99.90
13409;DHT22;6775;49.574;11.170;2023-03-16T00:28:08;-0.70;99.90
13409;DHT22;6775;49.574;11.170;2023-03-16T00:30:39;-0.70;99.90
13409;DHT22;6775;49.574;11.170;2023-03-16T00:33:07;-0.70;99.90
13409;DHT22;6775;49.574;11.170;2023-03-16T00:35:36;-0.70;99.90
13409;DHT22;6775;49.574;11.170;2023-03-16T00:38:04;-0.70;99.90
13409;DHT22;6775;49.574;11.170;2023-03-16T00:40:32;-0.80;99.90
13409;DHT22;6775;49.574;11.170;2023-03-16T00:42:59;-0.80;99.90
13409;DHT22;6775;49.574;11.170;2023-03-16T00:45:29;-0.80;99.90
13409;DHT22;6775;49.574;11.170;2023-03-16T00:47:57;-0.80;99.90
13409;DHT22;6775;49.574;11.170;2023-03-16T00:50:25;-0.80;99.90
13409;DHT22;6775;49.574;11.170;2023-03-16T00:52:53;-0.80;99.90
13409;DHT22;6775;49.574;11.170;2023-03-16T00:55:21;-0.90;99.90
13409;DHT22;6775;49.574;11.170;2023-03-16T00:57:49;-0.90;99.90
13409;DHT22;6775;49.574;11.170;2023-03-16T01:00:17;-0.90;99.90
13409;DHT22;6775;49.574;11.170;2023-03-16T01:02:48;-0.90;99.90
13409;DHT22;6775;49.574;11.170;2023-03-16T01:05:15;-0.80;99.90
13409;DHT22;6775;49.574;11.170;2023-03-16T01:07:44;-0.80;99.90
13409;DHT22;6775;49.574;11.170;2023-03-16T01:10:12;-0.80;99.90
13409;DHT22;6775;49.574;11.170;2023-03-16T01:12:40;-0.90;99.90
13409;DHT22;6775;49.574;11.170;2023-03-16T01:15:12;-0.80;99.90
13409;DHT22;6775;49.574;11.170;2023-03-16T01:17:40;-0.80;99.90
13409;DHT22;6775;49.574;11.170;2023-03-16T01:20:10;-0.80;99.90
13409;DHT22;6775;49.574;11.170;2023-03-16T01:22:41;-0.90;99.90
13409;DHT22;6775;49.574;11.170;2023-03-16T01:25:10;-1.00;99.90
13409;DHT22;6775;49.574;11.170;2023-03-16T01:27:38;-1.00;99.90
13409;DHT22;6775;49.574;11.170;2023-03-16T01:30:07;-1.10;99.90
13409;DHT22;6775;49.574;11.170;2023-03-16T01:32:38;-1.10;99.90
13409;DHT22;6775;49.574;11.170;2023-03-16T01:35:06;-1.10;99.90
13409;DHT22;6775;49.574;11.170;2023-03-16T01:37:36;-1.20;99.90
13409;DHT22;6775;49.574;11.170;2023-03-16T01:40:05;-1.20;99.90
13409;DHT22;6775;49.574;11.170;2023-03-16T01:42:43;-1.30;99.90
13409;DHT22;6775;49.574;11.170;2023-03-16T01:48:18;-1.40;99.90
13409;DHT22;6775;49.574;11.170;2023-03-16T01:50:49;-1.50;99.90
13409;DHT22;6775;49.574;11.170;2023-03-16T01:53:20;-1.50;99.90
13409;DHT22;6775;49.574;11.170;2023-03-16T01:55:49;-1.60;99.90
13409;DHT22;6775;49.574;11.170;2023-03-16T01:58:21;-1.60;99.90
13409;DHT22;6775;49.574;11.170;2023-03-16T02:00:49;-1.60;99.90
13409;DHT22;6775;49.574;11.170;2023-03-16T02:03:18;-1.60;99.90
13409;DHT22;6775;49.574;11.170;2023-03-16T02:05:50;-1.70;99.90
13409;DHT22;6775;49.574;11.170;2023-03-16T02:08:21;-1.70;99.90
13409;DHT22;6775;49.574;11.170;2023-03-16T02:10:49;-1.60;99.90
13409;DHT22;6775;49.574;11.170;2023-03-16T02:13:20;-1.60;99.90
13409;DHT22;6775;49.574;11.170;2023-03-16T02:15:48;-1.60;99.90
13409;DHT22;6775;49.574;11.170;2023-03-16T02:18:17;-1.60;99.90
13409;DHT22;6775;49.574;11.170;2023-03-16T02:20:51;-1.60;99.90
13409;DHT22;6775;49.574;11.170;2023-03-16T02:23:24;-1.60;99.90
13409;DHT22;6775;49.574;11.170;2023-03-16T02:25:58;-1.60;99.90
13409;DHT22;6775;49.574;11.170;2023-03-16T02:28:33;-1.60;99.90
13409;DHT22;6775;49.574;11.170;2023-03-16T02:31:06;-1.60;99.90
13409;DHT22;6775;49.574;11.170;2023-03-16T02:33:34;-1.50;99.90
13409;DHT22;6775;49.574;11.170;2023-03-16T02:36:02;-1.50;99.90
13409;DHT22;6775;49.574;11.170;2023-03-16T02:38:30;-1.40;99.90
13409;DHT22;6775;49.574;11.170;2023-03-16T02:41:01;-1.40;99.90
13409;DHT22;6775;49.574;11.170;2023-03-16T02:43:35;-1.40;99.90
13409;DHT22;6775;49.574;11.170;2023-03-16T02:46:06;-1.50;99.90
13409;DHT22;6775;49.574;11.170;2023-03-16T02:48:38;-1.50;99.90
13409;DHT22;6775;49.574;11.170;2023-03-16T02:51:08;-1.50;99.90
13409;DHT22;6775;49.574;11.170;2023-03-16T02:53:36;-1.50;99.90
13409;DHT22;6775;49.574;11.170;2023-03-16T02:56:05;-1.60;99.90
13409;DHT22;6775;49.574;11.170;2023-03-16T02:58:33;-1.60;99.90
13409;DHT22;6775;49.574;11.170;2023-03-16T03:01:01;-1.60;99.90
13409;DHT22;6775;49.574;11.170;2023-03-16T03:03:30;-1.60;99.90
13409;DHT22;6775;49.574;11.170;2023-03-16T03:05:59;-1.60;99.90
13409;DHT22;6775;49.574;11.170;2023-03-16T03:08:28;-1.70;99.90
13409;DHT22;6775;49.574;11.170;2023-03-16T03:10:58;-1.80;99.90
13409;DHT22;6775;49.574;11.170;2023-03-16T03:13:26;-1.80;99.90
13409;DHT22;6775;49.574;11.170;2023-03-16T03:15:54;-1.80;99.90
13409;DHT22;6775;49.574;11.170;2023-03-16T03:18:22;-1.80;99.90
13409;DHT22;6775;49.574;11.170;2023-03-16T03:20:52;-1.80;99.90
13409;DHT22;6775;49.574;11.170;2023-03-16T03:23:20;-1.70;99.90
13409;DHT22;6775;49.574;11.170;2023-03-16T03:25:47;-1.70;99.90
13409;DHT22;6775;49.574;11.170;2023-03-16T03:28:15;-1.80;99.90
13409;DHT22;6775;49.574;11.170;2023-03-16T03:30:43;-1.90;99.90
13409;DHT22;6775;49.574;11.170;2023-03-16T03:33:11;-1.90;99.90
13409;DHT22;6775;49.574;11.170;2023-03-16T03:35:39;-2.00;99.90
13409;DHT22;6775;49.574;11.170;2023-03-16T03:38:09;-1.90;99.90
13409;DHT22;6775;49.574;11.170;2023-03-16T03:40:37;-1.90;99.90
13409;DHT22;6775;49.574;11.170;2023-03-16T03:43:05;-1.80;99.90
13409;DHT22;6775;49.574;11.170;2023-03-16T03:45:32;-1.80;99.90
13409;DHT22;6775;49.574;11.170;2023-03-16T03:48:00;-1.70;99.90
13409;DHT22;6775;49.574;11.170;2023-03-16T03:50:28;-1.70;99.90
13409;DHT22;6775;49.574;11.170;2023-03-16T03:52:56;-1.70;99.90
13409;DHT22;6775;49.574;11.170;2023-03-16T03:55:25;-1.70;99.90
13409;DHT22;6775;49.574;11.170;2023-03-16T03:57:53;-1.70;99.90
13409;DHT22;6775;49.574;11.170;2023-03-16T04:00:21;-1.80;99.90
13409;DHT22;6775;49.574;11.170;2023-03-16T04:02:48;-1.80;99.90
13409;DHT22;6775;49.574;11.170;2023-03-16T04:05:17;-1.90;99.90
13409;DHT22;6775;49.574;11.170;2023-03-16T04:07:45;-1.90;99.90
13409;DHT22;6775;49.574;11.170;2023-03-16T04:10:13;-1.90;99.90
13409;DHT22;6775;49.574;11.170;2023-03-16T04:12:42;-1.90;99.90
13409;DHT22;6775;49.574;11.170;2023-03-16T04:15:10;-1.90;99.90
13409;DHT22;6775;49.574;11.170;2023-03-16T04:17:38;-1.90;99.90
13409;DHT22;6775;49.574;11.170;2023-03-16T04:20:07;-1.90;99.90
13409;DHT22;6775;49.574;11.170;2023-03-16T04:22:40;-1.80;99.90
13409;DHT22;6775;49.574;11.170;2023-03-16T04:25:08;-1.80;99.90
13409;DHT22;6775;49.574;11.170;2023-03-16T04:27:37;-1.80;99.90
13409;DHT22;6775;49.574;11.170;2023-03-16T04:30:08;-1.80;99.90
13409;DHT22;6775;49.574;11.170;2023-03-16T04:32:38;-1.70;99.90
13409;DHT22;6775;49.574;11.170;2023-03-16T04:35:06;-1.60;99.90
13409;DHT22;6775;49.574;11.170;2023-03-16T04:37:35;-1.60;99.90
13409;DHT22;6775;49.574;11.170;2023-03-16T04:40:03;-1.60;99.90
13409;DHT22;6775;49.574;11.170;2023-03-16T04:42:37;-1.60;99.90
13409;DHT22;6775;49.574;11.170;2023-03-16T04:45:07;-1.60;99.90
13409;DHT22;6775;49.574;11.170;2023-03-16T04:47:35;-1.60;99.90
13409;DHT22;6775;49.574;11.170;2023-03-16T04:50:04;-1.60;99.90
13409;DHT22;6775;49.574;11.170;2023-03-16T04:52:32;-1.60;99.90
13409;DHT22;6775;49.574;11.170;2023-03-16T04:55:00;-1.60;99.90
13409;DHT22;6775;49.574;11.170;2023-03-16T04:57:28;-1.70;99.90
13409;DHT22;6775;49.574;11.170;2023-03-16T04:59:56;-1.60;99.90
13409;DHT22;6775;49.574;11.170;2023-03-16T05:02:25;-1.60;99.90
13409;DHT22;6775;49.574;11.170;2023-03-16T05:04:53;-1.60;99.90
13409;DHT22;6775;49.574;11.170;2023-03-16T05:07:21;-1.60;99.90
13409;DHT22;6775;49.574;11.170;2023-03-16T05:09:50;-1.60;99.90
13409;DHT22;6775;49.574;11.170;2023-03-16T05:12:17;-1.60;99.90
13409;DHT22;6775;49.574;11.170;2023-03-16T05:14:45;-1.60;99.90
13409;DHT22;6775;49.574;11.170;2023-03-16T05:17:13;-1.70;99.90
13409;DHT22;6775;49.574;11.170;2023-03-16T05:19:42;-1.70;99.90
13409;DHT22;6775;49.574;11.170;2023-03-16T05:22:10;-1.70;99.90
13409;DHT22;6775;49.574;11.170;2023-03-16T05:24:38;-1.70;99.90
13409;DHT22;6775;49.574;11.170;2023-03-16T05:27:06;-1.70;99.90
13409;DHT22;6775;49.574;11.170;2023-03-16T05:29:34;-1.70;99.90
13409;DHT22;6775;49.574;11.170;2023-03-16T05:32:02;-1.80;99.90
13409;DHT22;6775;49.574;11.170;2023-03-16T05:34:29;-1.80;99.90
13409;DHT22;6775;49.574;11.170;2023-03-16T05:36:59;-1.80;99.90
13409;DHT22;6775;49.574;11.170;2023-03-16T05:39:26;-1.80;99.90
13409;DHT22;6775;49.574;11.170;2023-03-16T05:41:56;-1.70;99.90
13409;DHT22;6775;49.574;11.170;2023-03-16T05:44:24;-1.70;99.90
13409;DHT22;6775;49.574;11.170;2023-03-16T05:46:52;-1.70;99.90
13409;DHT22;6775;49.574;11.170;2023-03-16T05:49:20;-1.70;99.90
13409;DHT22;6775;49.574;11.170;2023-03-16T05:51:49;-1.70;99.90
13409;DHT22;6775;49.574;11.170;2023-03-16T05:54:18;-1.70;99.90
13409;DHT22;6775;49.574;11.170;2023-03-16T05:56:46;-1.60;99.90
13409;DHT22;6775;49.574;11.170;2023-03-16T05:59:13;-1.60;99.90
13409;DHT22;6775;49.574;11.170;2023-03-16T06:01:43;-1.50;99.90
13409;DHT22;6775;49.574;11.170;2023-03-16T06:04:12;-1.50;99.90
13409;DHT22;6775;49.574;11.170;2023-03-16T06:06:40;-1.50;99.90
13409;DHT22;6775;49.574;11.170;2023-03-16T06:09:07;-1.40;99.90
13409;DHT22;6775;49.574;11.170;2023-03-16T06:11:37;-1.40;99.90
13409;DHT22;6775;49.574;11.170;2023-03-16T06:14:04;-1.30;99.90
13409;DHT22;6775;49.574;11.170;2023-03-16T06:16:32;-1.30;99.90
13409;DHT22;6775;49.574;11.170;2023-03-16T06:19:00;-1.20;99.90
13409;DHT22;6775;49.574;11.170;2023-03-16T06:21:28;-1.10;99.90
13409;DHT22;6775;49.574;11.170;2023-03-16T06:23:56;-1.00;99.90
13409;DHT22;6775;49.574;11.170;2023-03-16T06:26:24;-0.90;99.90
13409;DHT22;6775;49.574;11.170;2023-03-16T06:28:53;-0.80;99.90
13409;DHT22;6775;49.574;11.170;2023-03-16T06:31:21;-0.80;99.90
13409;DHT22;6775;49.574;11.170;2023-03-16T06:33:49;-0.70;99.90
13409;DHT22;6775;49.574;11.170;2023-03-16T06:36:17;-0.60;99.90
13409;DHT22;6775;49.574;11.170;2023-03-16T06:38:44;-0.40;99.90
13409;DHT22;6775;49.574;11.170;2023-03-16T06:41:12;-0.30;99.90
13409;DHT22;6775;49.574;11.170;2023-03-16T06:43:40;-0.20;99.90
13409;DHT22;6775;49.574;11.170;2023-03-16T06:46:10;-0.10;99.90
13409;DHT22;6775;49.574;11.170;2023-03-16T06:48:38;0.00;99.90
13409;DHT22;6775;49.574;11.170;2023-03-16T06:51:06;0.10;99.90
13409;DHT22;6775;49.574;11.170;2023-03-16T06:53:34;0.20;99.90
13409;DHT22;6775;49.574;11.170;2023-03-16T06:56:01;0.30;99.90
13409;DHT22;6775;49.574;11.170;2023-03-16T06:58:29;0.40;99.90
13409;DHT22;6775;49.574;11.170;2023-03-16T07:01:00;0.50;99.90
13409;DHT22;6775;49.574;11.170;2023-03-16T07:03:30;0.70;99.90
13409;DHT22;6775;49.574;11.170;2023-03-16T07:05:58;0.70;99.90
13409;DHT22;6775;49.574;11.170;2023-03-16T07:08:27;0.80;99.90
13409;DHT22;6775;49.574;11.170;2023-03-16T07:10:54;0.80;99.90
13409;DHT22;6775;49.574;11.170;2023-03-16T07:13:22;1.00;99.90
13409;DHT22;6775;49.574;11.170;2023-03-16T07:15:50;1.10;99.90
13409;DHT22;6775;49.574;11.170;2023-03-16T07:18:18;1.10;99.90
13409;DHT22;6775;49.574;11.170;2023-03-16T07:20:48;1.20;99.90
13409;DHT22;6775;49.574;11.170;2023-03-16T07:23:16;1.30;99.90
13409;DHT22;6775;49.574;11.170;2023-03-16T07:25:43;1.40;99.90
13409;DHT22;6775;49.574;11.170;2023-03-16T07:28:11;1.30;99.90
13409;DHT22;6775;49.574;11.170;2023-03-16T07:30:39;1.30;99.90
13409;DHT22;6775;49.574;11.170;2023-03-16T07:33:26;1.30;99.90
13409;DHT22;6775;49.574;11.170;2023-03-16T07:35:55;1.40;99.90
13409;DHT22;6775;49.574;11.170;2023-03-16T07:38:23;1.50;99.90
13409;DHT22;6775;49.574;11.170;2023-03-16T07:40:50;1.50;99.90
13409;DHT22;6775;49.574;11.170;2023-03-16T07:43:18;1.60;99.90
13409;DHT22;6775;49.574;11.170;2023-03-16T07:45:47;1.70;99.90
13409;DHT22;6775;49.574;11.170;2023-03-16T07:48:16;1.70;99.90
13409;DHT22;6775;49.574;11.170;2023-03-16T07:50:46;1.80;99.90
13409;DHT22;6775;49.574;11.170;2023-03-16T07:53:16;2.00;99.90
13409;DHT22;6775;49.574;11.170;2023-03-16T07:55:44;2.10;99.90
13409;DHT22;6775;49.574;11.170;2023-03-16T07:58:11;2.10;99.90
13409;DHT22;6775;49.574;11.170;2023-03-16T08:00:39;2.10;99.90
13409;DHT22;6775;49.574;11.170;2023-03-16T08:03:08;2.20;99.90
13409;DHT22;6775;49.574;11.170;2023-03-16T08:05:36;2.20;99.90
13409;DHT22;6775;49.574;11.170;2023-03-16T08:08:04;2.40;99.90
13409;DHT22;6775;49.574;11.170;2023-03-16T08:10:36;2.50;99.90
13409;DHT22;6775;49.574;11.170;2023-03-16T08:13:04;2.60;99.90
13409;DHT22;6775;49.574;11.170;2023-03-16T08:15:32;2.80;99.90
13409;DHT22;6775;49.574;11.170;2023-03-16T08:18:00;3.00;99.90
13409;DHT22;6775;49.574;11.170;2023-03-16T08:20:29;3.10;99.90
13409;DHT22;6775;49.574;11.170;2023-03-16T08:22:58;3.20;99.90
13409;DHT22;6775;49.574;11.170;2023-03-16T08:25:25;3.30;99.90
13409;DHT22;6775;49.574;11.170;2023-03-16T08:27:55;3.50;99.90
13409;DHT22;6775;49.574;11.170;2023-03-16T08:30:23;3.80;99.90
13409;DHT22;6775;49.574;11.170;2023-03-16T08:32:52;4.00;99.90
13409;DHT22;6775;49.574;11.170;2023-03-16T08:35:20;4.10;99.90
13409;DHT22;6775;49.574;11.170;2023-03-16T08:37:48;4.50;99.90
13409;DHT22;6775;49.574;11.170;2023-03-16T08:40:16;4.60;99.90
13409;DHT22;6775;49.574;11.170;2023-03-16T08:42:46;4.80;99.90
13409;DHT22;6775;49.574;11.170;2023-03-16T08:45:17;5.00;99.90
13409;DHT22;6775;49.574;11.170;2023-03-16T08:47:45;5.00;99.90
13409;DHT22;6775;49.574;11.170;2023-03-16T08:50:13;5.00;99.90
13409;DHT22;6775;49.574;11.170;2023-03-16T08:52:41;5.00;99.90
13409;DHT22;6775;49.574;11.170;2023-03-16T08:55:09;5.10;99.90
13409;DHT22;6775;49.574;11.170;2023-03-16T08:57:38;5.10;99.90
13409;DHT22;6775;49.574;11.170;2023-03-16T09:00:07;5.10;99.90
13409;DHT22;6775;49.574;11.170;2023-03-16T09:02:40;5.10;99.90
13409;DHT22;6775;49.574;11.170;2023-03-16T09:05:10;5.20;99.90
13409;DHT22;6775;49.574;11.170;2023-03-16T09:07:38;5.40;99.90
13409;DHT22;6775;49.574;11.170;2023-03-16T09:10:07;5.60;99.90
13409;DHT22;6775;49.574;11.170;2023-03-16T09:12:38;6.00;99.90
13409;DHT22;6775;49.574;11.170;2023-03-16T09:15:07;6.20;99.90
13409;DHT22;6775;49.574;11.170;2023-03-16T09:17:38;6.20;99.90
13409;DHT22;6775;49.574;11.170;2023-03-16T09:20:09;6.40;99.90
13409;DHT22;6775;49.574;11.170;2023-03-16T09:22:52;6.50;99.90
13409;DHT22;6775;49.574;11.170;2023-03-16T09:25:20;6.60;99.90
13409;DHT22;6775;49.574;11.170;2023-03-16T09:27:48;6.60;99.90
13409;DHT22;6775;49.574;11.170;2023-03-16T09:30:16;6.60;99.90
13409;DHT22;6775;49.574;11.170;2023-03-16T09:32:45;6.90;99.90
13409;DHT22;6775;49.574;11.170;2023-03-16T09:35:15;7.10;99.90
13409;DHT22;6775;49.574;11.170;2023-03-16T09:37:44;7.30;99.90
13409;DHT22;6775;49.574;11.170;2023-03-16T09:40:31;7.40;99.90
13409;DHT22;6775;49.574;11.170;2023-03-16T09:43:17;7.50;99.90
13409;DHT22;6775;49.574;11.170;2023-03-16T09:45:51;7.60;99.90
13409;DHT22;6775;49.574;11.170;2023-03-16T09:48:22;7.60;99.90
13409;DHT22;6775;49.574;11.170;2023-03-16T09:50:53;7.60;99.90
13409;DHT22;6775;49.574;11.170;2023-03-16T09:53:25;7.50;99.90
13409;DHT22;6775;49.574;11.170;2023-03-16T09:55:59;7.70;99.90
13409;DHT22;6775;49.574;11.170;2023-03-16T09:58:29;7.80;99.90
13409;DHT22;6775;49.574;11.170;2023-03-16T10:01:05;8.00;99.90
13409;DHT22;6775;49.574;11.170;2023-03-16T10:03:53;8.30;99.90
13409;DHT22;6775;49.574;11.170;2023-03-16T10:06:27;8.40;99.90
13409;DHT22;6775;49.574;11.170;2023-03-16T10:09:04;8.40;99.90
13409;DHT22;6775;49.574;11.170;2023-03-16T10:11:37;8.40;99.90
13409;DHT22;6775;49.574;11.170;2023-03-16T10:14:11;8.60;99.90
13409;DHT22;6775;49.574;11.170;2023-03-16T10:16:46;8.70;99.90
13409;DHT22;6775;49.574;11.170;2023-03-16T10:19:19;8.60;99.90
13409;DHT22;6775;49.574;11.170;2023-03-16T10:21:52;8.40;99.90
13409;DHT22;6775;49.574;11.170;2023-03-16T10:24:31;8.90;99.90
13409;DHT22;6775;49.574;11.170;2023-03-16T10:27:04;8.60;99.90
13409;DHT22;6775;49.574;11.170;2023-03-16T10:29:34;8.80;99.90
13409;DHT22;6775;49.574;11.170;2023-03-16T10:32:12;9.10;99.90
13409;DHT22;6775;49.574;11.170;2023-03-16T10:34:46;9.10;99.90
13409;DHT22;6775;49.574;11.170;2023-03-16T10:37:15;9.10;99.90
13409;DHT22;6775;49.574;11.170;2023-03-16T10:39:43;9.20;99.90
13409;DHT22;6775;49.574;11.170;2023-03-16T10:42:14;9.20;99.90
13409;DHT22;6775;49.574;11.170;2023-03-16T10:44:44;9.30;99.90
13409;DHT22;6775;49.574;11.170;2023-03-16T10:47:17;9.40;99.90
13409;DHT22;6775;49.574;11.170;2023-03-16T10:49:46;9.10;99.90
13409;DHT22;6775;49.574;11.170;2023-03-16T10:52:26;9.10;99.90
13409;DHT22;6775;49.574;11.170;2023-03-16T10:54:59;9.10;98.50
13409;DHT22;6775;49.574;11.170;2023-03-16T10:57:30;9.20;99.90
13409;DHT22;6775;49.574;11.170;2023-03-16T11:00:02;9.30;96.30
13409;DHT22;6775;49.574;11.170;2023-03-16T11:02:42;9.50;99.90
13409;DHT22;6775;49.574;11.170;2023-03-16T11:05:12;9.40;95.10
13409;DHT22;6775;49.574;11.170;2023-03-16T11:07:48;9.40;98.00
13409;DHT22;6775;49.574;11.170;2023-03-16T11:10:25;9.50;98.50
13409;DHT22;6775;49.574;11.170;2023-03-16T11:13:00;9.60;96.70
13409;DHT22;6775;49.574;11.170;2023-03-16T11:15:36;9.60;95.60
13409;DHT22;6775;49.574;11.170;2023-03-16T11:18:07;9.70;97.30
13409;DHT22;6775;49.574;11.170;2023-03-16T11:20:36;9.70;93.20
13409;DHT22;6775;49.574;11.170;2023-03-16T11:23:10;9.80;95.20
13409;DHT22;6775;49.574;11.170;2023-03-16T11:25:46;10.00;92.00
13409;DHT22;6775;49.574;11.170;2023-03-16T11:28:18;10.10;93.10
13409;DHT22;6775;49.574;11.170;2023-03-16T11:30:57;9.80;96.00
13409;DHT22;6775;49.574;11.170;2023-03-16T11:33:26;9.60;94.30
13409;DHT22;6775;49.574;11.170;2023-03-16T11:36:01;9.60;94.30
13409;DHT22;6775;49.574;11.170;2023-03-16T11:38:39;9.70;96.40
13409;DHT22;6775;49.574;11.170;2023-03-16T11:41:11;9.70;94.70
13409;DHT22;6775;49.574;11.170;2023-03-16T11:43:49;9.80;94.50
13409;DHT22;6775;49.574;11.170;2023-03-16T11:46:21;9.80;92.00
13409;DHT22;6775;49.574;11.170;2023-03-16T11:49:09;9.90;93.80
13409;DHT22;6775;49.574;11.170;2023-03-16T11:51:46;10.00;91.80
13409;DHT22;6775;49.574;11.170;2023-03-16T11:54:36;10.00;91.70
13409;DHT22;6775;49.574;11.170;2023-03-16T11:57:13;10.10;94.20
13409;DHT22;6775;49.574;11.170;2023-03-16T12:00:13;9.70;93.90
13409;DHT22;6775;49.574;11.170;2023-03-16T12:02:56;9.30;92.00
13409;DHT22;6775;49.574;11.170;2023-03-16T12:05:36;9.40;93.10
13409;DHT22;6775;49.574;11.170;2023-03-16T12:08:29;9.60;91.40
13409;DHT22;6775;49.574;11.170;2023-03-16T12:11:01;9.70;93.60
13409;DHT22;6775;49.574;11.170;2023-03-16T12:13:39;9.80;89.80
13409;DHT22;6775;49.574;11.170;2023-03-16T12:16:16;9.70;88.50
13409;DHT22;6775;49.574;11.170;2023-03-16T12:18:49;9.70;86.10
13409;DHT22;6775;49.574;11.170;2023-03-16T12:21:21;9.90;87.70
13409;DHT22;6775;49.574;11.170;2023-03-16T12:23:52;10.00;88.60
13409;DHT22;6775;49.574;11.170;2023-03-16T12:26:24;10.10;85.10
13409;DHT22;6775;49.574;11.170;2023-03-16T12:28:56;10.20;88.30
13409;DHT22;6775;49.574;11.170;2023-03-16T12:31:34;10.10;84.60
13409;DHT22;6775;49.574;11.170;2023-03-16T12:34:10;10.00;86.80
13409;DHT22;6775;49.574;11.170;2023-03-16T12:37:06;10.10;91.50
13409;DHT22;6775;49.574;11.170;2023-03-16T12:39:46;10.30;92.60
13409;DHT22;6775;49.574;11.170;2023-03-16T12:42:32;10.60;90.40
13409;DHT22;6775;49.574;11.170;2023-03-16T12:45:07;10.50;86.30
13409;DHT22;6775;49.574;11.170;2023-03-16T12:47:42;10.40;86.10
13409;DHT22;6775;49.574;11.170;2023-03-16T12:50:18;10.20;86.30
13409;DHT22;6775;49.574;11.170;2023-03-16T12:52:48;10.20;90.50
13409;DHT22;6775;49.574;11.170;2023-03-16T12:55:17;10.10;90.00
13409;DHT22;6775;49.574;11.170;2023-03-16T12:57:48;10.00;88.70
13409;DHT22;6775;49.574;11.170;2023-03-16T13:00:18;10.00;90.10
13409;DHT22;6775;49.574;11.170;2023-03-16T13:02:52;10.00;92.50
13409;DHT22;6775;49.574;11.170;2023-03-16T13:05:28;10.00;91.40
13409;DHT22;6775;49.574;11.170;2023-03-16T13:08:07;10.10;88.40
13409;DHT22;6775;49.574;11.170;2023-03-16T13:10:36;10.20;92.90
13409;DHT22;6775;49.574;11.170;2023-03-16T13:13:11;10.30;91.80
13409;DHT22;6775;49.574;11.170;2023-03-16T13:15:41;10.40;90.90
13409;DHT22;6775;49.574;11.170;2023-03-16T13:18:22;10.20;86.00
13409;DHT22;6775;49.574;11.170;2023-03-16T13:20:54;10.20;89.40
13409;DHT22;6775;49.574;11.170;2023-03-16T13:23:24;10.20;91.00
13409;DHT22;6775;49.574;11.170;2023-03-16T13:26:08;10.20;90.00
13409;DHT22;6775;49.574;11.170;2023-03-16T13:28:40;10.10;89.20
13409;DHT22;6775;49.574;11.170;2023-03-16T13:31:21;10.10;84.80
13409;DHT22;6775;49.574;11.170;2023-03-16T13:33:53;10.00;84.80
13409;DHT22;6775;49.574;11.170;2023-03-16T13:36:23;9.90;85.80
13409;DHT22;6775;49.574;11.170;2023-03-16T13:39:00;10.00;85.20
13409;DHT22;6775;49.574;11.170;2023-03-16T13:41:30;9.90;82.00
13409;DHT22;6775;49.574;11.170;2023-03-16T13:43:59;9.90;87.80
13409;DHT22;6775;49.574;11.170;2023-03-16T13:46:28;10.00;79.80
13409;DHT22;6775;49.574;11.170;2023-03-16T13:48:57;9.90;82.50
13409;DHT22;6775;49.574;11.170;2023-03-16T13:51:37;9.80;78.30
13409;DHT22;6775;49.574;11.170;2023-03-16T13:54:18;9.90;83.60
13409;DHT22;6775;49.574;11.170;2023-03-16T13:56:54;10.00;74.20
13409;DHT22;6775;49.574;11.170;2023-03-16T13:59:24;10.00;71.10
13409;DHT22;6775;49.574;11.170;2023-03-16T14:01:56;10.00;70.60
13409;DHT22;6775;49.574;11.170;2023-03-16T14:04:27;10.10;71.10
13409;DHT22;6775;49.574;11.170;2023-03-16T14:06:56;10.20;76.60
13409;DHT22;6775;49.574;11.170;2023-03-16T14:09:26;10.20;81.50
13409;DHT22;6775;49.574;11.170;2023-03-16T14:11:56;10.10;81.10
13409;DHT22;6775;49.574;11.170;2023-03-16T14:14:28;10.00;80.70
13409;DHT22;6775;49.574;11.170;2023-03-16T14:17:07;10.00;82.10
13409;DHT22;6775;49.574;11.170;2023-03-16T14:19:40;10.10;77.80
13409;DHT22;6775;49.574;11.170;2023-03-16T14:22:12;10.10;86.50
13409;DHT22;6775;49.574;11.170;2023-03-16T14:24:41;10.10;82.20
13409;DHT22;6775;49.574;11.170;2023-03-16T14:27:21;10.00;83.00
13409;DHT22;6775;49.574;11.170;2023-03-16T14:29:53;9.90;80.90
13409;DHT22;6775;49.574;11.170;2023-03-16T14:32:24;9.70;84.10
13409;DHT22;6775;49.574;11.170;2023-03-16T14:35:08;9.70;80.30
13409;DHT22;6775;49.574;11.170;2023-03-16T14:37:38;9.60;79.20
13409;DHT22;6775;49.574;11.170;2023-03-16T14:40:21;9.50;80.90
13409;DHT22;6775;49.574;11.170;2023-03-16T14:42:50;9.50;78.70
13409;DHT22;6775;49.574;11.170;2023-03-16T14:45:20;9.50;75.60
13409;DHT22;6775;49.574;11.170;2023-03-16T14:47:49;9.60;75.60
13409;DHT22;6775;49.574;11.170;2023-03-16T14:50:22;9.60;75.70
13409;DHT22;6775;49.574;11.170;2023-03-16T14:52:53;9.50;76.60
13409;DHT22;6775;49.574;11.170;2023-03-16T14:55:21;9.30;74.40
13409;DHT22;6775;49.574;11.170;2023-03-16T14:57:50;9.20;76.10
13409;DHT22;6775;49.574;11.170;2023-03-16T15:00:21;9.20;75.80
13409;DHT22;6775;49.574;11.170;2023-03-16T15:02:57;9.20;73.60
13409;DHT22;6775;49.574;11.170;2023-03-16T15:05:34;9.10;75.20
13409;DHT22;6775;49.574;11.170;2023-03-16T15:08:05;9.10;72.20
13409;DHT22;6775;49.574;11.170;2023-03-16T15:10:35;9.10;75.90
13409;DHT22;6775;49.574;11.170;2023-03-16T15:13:11;9.10;73.60
13409;DHT22;6775;49.574;11.170;2023-03-16T15:15:43;9.00;72.30
13409;DHT22;6775;49.574;11.170;2023-03-16T15:18:14;8.90;72.40
13409;DHT22;6775;49.574;11.170;2023-03-16T15:20:43;8.90;73.70
13409;DHT22;6775;49.574;11.170;2023-03-16T15:23:15;8.80;76.10
13409;DHT22;6775;49.574;11.170;2023-03-16T15:25:44;8.90;80.30
13409;DHT22;6775;49.574;11.170;2023-03-16T15:28:14;8.90;81.30
13409;DHT22;6775;49.574;11.170;2023-03-16T15:30:46;8.90;83.00
13409;DHT22;6775;49.574;11.170;2023-03-16T15:33:15;9.00;82.10
13409;DHT22;6775;49.574;11.170;2023-03-16T15:35:44;9.00;80.60
13409;DHT22;6775;49.574;11.170;2023-03-16T15:38:15;8.80;77.40
13409;DHT22;6775;49.574;11.170;2023-03-16T15:40:45;8.70;78.80
13409;DHT22;6775;49.574;11.170;2023-03-16T15:43:15;8.70;81.10
13409;DHT22;6775;49.574;11.170;2023-03-16T15:45:45;8.70;79.20
13409;DHT22;6775;49.574;11.170;2023-03-16T15:48:14;8.70;79.80
13409;DHT22;6775;49.574;11.170;2023-03-16T15:50:49;8.60;82.00
13409;DHT22;6775;49.574;11.170;2023-03-16T15:53:23;8.60;81.30
13409;DHT22;6775;49.574;11.170;2023-03-16T15:55:59;8.60;86.20
13409;DHT22;6775;49.574;11.170;2023-03-16T15:58:29;8.60;84.80
13409;DHT22;6775;49.574;11.170;2023-03-16T16:01:00;8.60;88.70
13409;DHT22;6775;49.574;11.170;2023-03-16T16:03:29;8.50;84.30